Latest Weather Observations for Witchcliffe

IDW60801

Issued at 9:33 pm WST Wednesday 27 July 2016 (issued every 30 minutes, with the page automatically refreshed every 10 minutes)

About weather observations | Map of weather stations | Latest weather observations for WA | Other Formats
Station Details ID: 009746 Name: WITCHCLIFFE Lat: -34.03 Lon: 115.10 Height: 80.0 m
Data from the previous 72 hours. | See also: Recent months at Witchcliffe
Date/Time
WST
Temp
°C
App
Temp
°C
Dew
Point
°C
Rel
Hum
%
Delta-T
°C
Wind Press
QNH
hPa
Press
MSL
hPa
Rain since
9am
mm
Dir  Spd
km/h
Gust
km/h
Spd
kts
Gust
kts
27/09:30pm 12.2 12.3 10.1 87 1.1 CALM 0 4 0 2 1023.6 1023.6 0.0
27/09:00pm 12.1 11.9 10.3 89 0.9 N 2 7 1 4 1024.0 1024.0 0.0
27/08:30pm 11.9 12.0 10.0 88 1.0 CALM 0 9 0 5 1024.1 1024.1 0.0
27/08:00pm 12.4 11.3 10.0 85 1.2 NNE 6 11 3 6 1023.9 1023.9 0.0
27/07:30pm 12.5 11.3 10.4 87 1.1 NNE 7 11 4 6 1023.8 1023.8 0.0
27/07:00pm 12.3 12.5 10.5 89 0.9 CALM 0 7 0 4 1023.9 1023.9 0.0
27/06:30pm 12.1 12.2 10.0 87 1.1 CALM 0 0 0 0 1024.0 1024.0 0.0
27/06:00pm 12.7 12.7 9.9 83 1.4 CALM 0 0 0 0 1023.9 1023.9 0.0
27/05:30pm 13.3 12.2 10.1 81 1.7 N 6 9 3 5 1023.7 1023.7 0.0
27/05:00pm 13.8 12.1 10.0 78 2.0 N 9 11 5 6 1023.8 1023.8 0.0
27/04:30pm 14.5 13.4 10.1 75 2.3 N 6 9 3 5 1023.3 1023.3 0.0
27/04:00pm 14.9 12.5 10.1 73 2.5 N 13 17 7 9 1023.4 1023.4 0.0
27/03:30pm 15.2 12.8 10.0 71 2.7 N 13 17 7 9 1023.5 1023.5 0.0
27/03:00pm 15.4 12.9 9.7 69 3.0 NNW 13 19 7 10 1023.5 1023.5 0.0
27/02:30pm 15.8 13.7 9.7 67 3.2 N 11 20 6 11 1023.4 1023.4 0.0
27/02:00pm 15.7 13.7 10.2 70 2.9 N 11 17 6 9 1023.6 1023.6 0.0
27/01:30pm 15.6 12.4 9.9 69 3.0 N 17 20 9 11 1023.9 1023.9 0.0
27/01:00pm 15.8 12.6 9.9 68 3.1 N 17 20 9 11 1024.5 1024.5 0.0
27/12:30pm 15.8 13.7 9.9 68 3.1 NNW 11 19 6 10 1025.1 1025.1 0.0
27/12:00pm 15.5 13.2 10.3 71 2.7 N 13 19 7 10 1025.8 1025.8 0.0
27/11:30am 15.5 12.4 10.3 71 2.7 N 17 22 9 12 1026.0 1026.0 0.0
27/11:00am 15.8 13.9 10.6 71 2.7 N 11 15 6 8 1026.4 1026.4 0.0
27/10:30am 15.8 14.2 10.3 70 2.9 NNE 9 13 5 7 1026.7 1026.7 0.0
27/10:00am 14.6 12.1 9.8 73 2.5 N 13 19 7 10 1026.8 1026.9 0.0
27/09:30am 14.2 12.5 9.8 75 2.3 N 9 15 5 8 1026.9 1027.0 0.0
27/09:00am 13.4 12.2 9.6 78 1.9 NNE 6 11 3 6 1026.7 1026.7 0.4
27/08:30am 13.1 12.0 10.6 85 1.3 N 7 9 4 5 1026.4 1026.4 0.4
27/08:00am 11.9 10.9 11.0 94 0.5 N 7 9 4 5 1026.6 1026.6 0.4
27/07:30am 10.7 10.7 9.8 94 0.5 CALM 0 0 0 0 1026.6 1026.6 0.4
27/07:00am 11.0 11.0 9.8 92 0.6 CALM 0 0 0 0 1026.6 1026.6 0.4
27/06:30am 11.6 10.5 10.0 90 0.8 N 6 9 3 5 1027.1 1027.2 0.4
27/06:00am 11.6 11.6 9.9 89 0.9 CALM 0 9 0 5 1027.3 1027.4 0.4
27/05:30am 11.5 9.7 9.6 88 1.0 NNW 9 11 5 6 1027.1 1027.2 0.4
27/05:00am 11.5 11.5 9.9 90 0.8 CALM 0 6 0 3 1026.7 1026.7 0.4
27/04:30am 11.6 11.0 10.3 92 0.7 NNE 4 9 2 5 1026.8 1026.9 0.4
27/04:00am 11.6 10.7 11.3 98 0.2 N 7 9 4 5 1026.8 1026.9 0.4
27/03:30am 11.4 11.8 11.2 99 0.1 CALM 0 0 0 0 1027.0 1027.1 0.4
27/03:00am 11.5 11.5 11.3 99 0.1 NE 2 7 1 4 1027.2 1027.3 0.4
27/02:30am 11.4 11.8 11.2 99 0.1 CALM 0 0 0 0 1027.3 1027.4 0.4
27/02:00am 11.6 12.0 11.4 99 0.1 CALM 0 0 0 0 1027.3 1027.4 0.4
27/01:30am 11.8 12.3 11.6 99 0.1 CALM 0 0 0 0 1027.4 1027.5 0.4
27/01:00am 11.6 12.0 11.4 99 0.1 CALM 0 0 0 0 1027.3 1027.4 0.4
27/12:30am 11.6 12.0 11.4 99 0.1 CALM 0 0 0 0 1027.4 1027.5 0.4
27/12:00am 11.7 12.2 11.5 99 0.1 CALM 0 7 0 4 1027.6 1027.7 0.4
 
Date/Time
WST
Temp
°C
App
Temp
°C
Dew
Point
°C
Rel
Hum
%
Delta-T
°C
Wind Press
QNH
hPa
Press
MSL
hPa
Rain since
9am
mm
Dir  Spd
km/h
Gust
km/h
Spd
kts
Gust
kts
26/11:30pm 11.7 12.2 11.5 99 0.1 CALM 0 0 0 0 1027.9 1028.0 0.4
26/11:00pm 11.6 12.0 11.4 99 0.1 CALM 0 0 0 0 1027.8 1027.9 0.4
26/10:30pm 11.6 12.0 11.4 99 0.1 CALM 0 0 0 0 1028.0 1028.1 0.4
26/10:00pm 11.5 11.9 11.3 99 0.1 CALM 0 0 0 0 1028.3 1028.4 0.4
26/09:30pm 11.3 10.5 11.1 99 0.1 N 6 7 3 4 1028.5 1028.6 0.4
26/09:00pm 11.2 11.5 11.0 99 0.1 CALM 0 0 0 0 1028.6 1028.7 0.4
26/08:30pm 11.8 11.9 11.6 99 0.1 WSW 2 9 1 5 1028.7 1028.8 0.4
26/08:00pm 11.8 12.3 11.5 98 0.2 CALM 0 0 0 0 1028.4 1028.5 0.4
26/07:30pm 12.5 13.1 12.0 97 0.3 CALM 0 0 0 0 1028.2 1028.3 0.4
26/07:00pm 12.7 12.9 11.9 95 0.4 SW 2 7 1 4 1028.1 1028.2 0.4
26/06:30pm 12.7 12.3 11.1 90 0.8 WSW 4 13 2 7 1027.9 1028.0 0.2
26/06:00pm 12.9 13.2 10.8 87 1.1 CALM 0 0 0 0 1027.7 1027.8 0.2
26/05:30pm 13.1 12.0 10.6 85 1.3 SSW 7 11 4 6 1027.4 1027.5 0.2
26/05:00pm 13.7 13.3 9.9 78 2.0 WSW 2 7 1 4 1027.4 1027.5 0.2
26/04:30pm 14.1 12.4 9.9 76 2.2 SW 9 15 5 8 1027.3 1027.4 0.2
26/04:00pm 15.5 13.4 11.1 75 2.3 SW 13 19 7 10 1027.3 1027.4 0.2
26/03:30pm 15.1 14.3 10.9 76 2.2 SW 6 15 3 8 1027.2 1027.3 0.2
26/03:00pm 16.3 14.2 11.2 72 2.7 WSW 13 19 7 10 1027.1 1027.2 0.2
26/02:30pm 15.3 13.9 12.1 81 1.7 SW 11 15 6 8 1027.1 1027.2 0.2
26/02:00pm 14.8 12.7 11.2 79 1.9 SW 13 19 7 10 1027.0 1027.1 0.2
26/01:30pm 14.3 12.7 12.7 90 0.9 SW 13 22 7 12 1027.2 1027.3 0.2
26/01:00pm 15.0 14.6 14.2 95 0.5 W 9 17 5 9 1027.5 1027.6 0.2
26/12:30pm 13.8 12.0 12.2 90 0.9 SW 13 20 7 11 1027.8 1027.9 0.2
26/12:00pm 15.3 13.2 11.3 77 2.1 SW 13 19 7 10 1027.9 1028.0 0.0
26/11:30am 14.3 11.9 11.3 82 1.6 SSW 15 20 8 11 1028.5 1028.6 0.0
26/11:00am 15.5 13.2 10.5 72 2.6 WSW 13 24 7 13 1028.6 1028.7 0.0
26/10:30am 15.4 13.7 9.7 69 3.0 SW 9 17 5 9 1028.6 1028.7 0.0
26/10:00am 15.0 12.9 9.6 70 2.8 WSW 11 17 6 9 1028.6 1028.7 0.0
26/09:30am 15.2 13.6 10.2 72 2.6 WSW 9 17 5 9 1028.5 1028.6 0.0
26/09:00am 14.5 14.1 9.7 73 2.5 SW 2 6 1 3 1028.3 1028.4 0.4
26/08:30am 13.5 12.9 8.8 73 2.4 W 2 9 1 5 1028.1 1028.2 0.4
26/08:00am 12.9 11.8 8.4 74 2.2 WNW 4 7 2 4 1027.8 1027.9 0.4
26/07:30am 12.7 12.0 8.4 75 2.1 SW 2 7 1 4 1027.6 1027.7 0.4
26/07:00am 12.8 11.8 8.9 77 2.0 SW 4 9 2 5 1027.5 1027.6 0.4
26/06:30am 12.7 12.0 8.4 75 2.1 WSW 2 7 1 4 1027.2 1027.3 0.4
26/06:00am 12.7 11.1 8.2 74 2.2 SW 6 9 3 5 1027.0 1027.1 0.4
26/05:30am 12.9 11.5 9.0 77 2.0 WSW 6 11 3 6 1027.1 1027.2 0.4
26/05:00am 12.9 12.0 9.4 79 1.8 SW 4 11 2 6 1027.0 1027.1 0.4
26/04:30am 13.1 10.9 9.2 77 2.0 WSW 11 17 6 9 1027.0 1027.1 0.4
26/04:00am 12.6 11.0 7.9 73 2.3 SSW 6 9 3 5 1026.9 1027.0 0.4
26/03:30am 12.2 9.9 7.3 72 2.4 SW 9 13 5 7 1026.8 1026.9 0.4
26/03:00am 12.3 10.0 7.6 73 2.3 SW 9 17 5 9 1027.0 1027.1 0.4
26/02:30am 12.0 9.7 7.5 74 2.2 SW 9 13 5 7 1026.9 1027.0 0.4
26/02:00am 13.0 10.5 8.1 72 2.4 SW 11 15 6 8 1026.9 1027.0 0.4
26/01:30am 12.8 11.1 8.3 74 2.2 SW 7 15 4 8 1027.0 1027.1 0.4
26/01:00am 12.6 10.8 8.1 74 2.2 WSW 7 11 4 6 1027.1 1027.2 0.4
26/12:30am 12.5 10.8 7.6 72 2.4 WSW 6 9 3 5 1027.1 1027.2 0.4
26/12:00am 12.3 10.1 8.0 75 2.1 SW 9 15 5 8 1027.3 1027.4 0.4
 
Date/Time
WST
Temp
°C
App
Temp
°C
Dew
Point
°C
Rel
Hum
%
Delta-T
°C
Wind Press
QNH
hPa
Press
MSL
hPa
Rain since
9am
mm
Dir  Spd
km/h
Gust
km/h
Spd
kts
Gust
kts
25/11:30pm 13.3 10.7 9.4 77 2.0 WSW 13 20 7 11 1027.3 1027.4 0.4
25/11:00pm 12.9 10.7 8.0 72 2.4 WSW 9 15 5 8 1027.6 1027.7 0.4
25/10:30pm 12.5 11.0 8.4 76 2.0 WSW 6 11 3 6 1027.6 1027.7 0.4
25/10:00pm 12.0 10.0 7.1 72 2.3 W 7 11 4 6 1027.6 1027.7 0.4
25/09:30pm 12.2 10.3 7.7 74 2.2 W 7 9 4 5 1027.6 1027.7 0.4
25/09:00pm 12.1 10.0 8.2 77 1.9 SW 9 15 5 8 1028.1 1028.2 0.4
25/08:30pm 11.3 10.1 9.7 90 0.8 WSW 6 9 3 5 1027.7 1027.8 0.4
25/08:00pm 10.3 9.6 8.6 89 0.8 WSW 2 7 1 4 1027.9 1028.0 0.4
25/07:30pm 10.5 9.1 8.9 90 0.8 SW 6 9 3 5 1027.6 1027.7 0.4
25/07:00pm 10.7 10.5 9.1 90 0.8 CALM 0 0 0 0 1026.9 1027.0 0.4
25/06:30pm 11.2 11.1 9.3 88 1.0 CALM 0 0 0 0 1026.6 1026.6 0.4
25/06:00pm 11.8 11.5 8.5 80 1.6 CALM 0 0 0 0 1026.6 1026.6 0.4
25/05:30pm 12.8 12.2 8.9 77 2.0 SW 2 7 1 4 1026.8 1026.9 0.4
25/05:00pm 13.6 12.0 8.7 72 2.5 WSW 7 15 4 8 1026.7 1026.7 0.4
25/04:30pm 14.6 12.5 9.6 72 2.6 SW 11 15 6 8 1026.8 1026.9 0.4
25/04:00pm 15.2 12.6 9.3 68 3.0 WSW 13 17 7 9 1026.8 1026.9 0.4
25/03:30pm 15.6 13.0 9.3 66 3.3 W 13 20 7 11 1026.7 1026.7 0.4
25/03:00pm 15.5 12.9 9.2 66 3.2 SW 13 19 7 10 1026.6 1026.6 0.4
25/02:30pm 15.2 12.7 8.4 64 3.4 W 11 19 6 10 1026.3 1026.3 0.4
25/02:00pm 15.5 13.4 9.8 69 3.0 WSW 11 19 6 10 1026.3 1026.3 0.4
25/01:30pm 15.6 14.1 10.4 71 2.8 WSW 9 15 5 8 1026.5 1026.5 0.4
25/01:00pm 14.9 13.1 9.5 70 2.8 WSW 9 13 5 7 1026.8 1026.9 0.4
25/12:30pm 14.9 12.4 9.7 71 2.7 SW 13 20 7 11 1027.2 1027.3 0.4
25/12:00pm 13.8 11.6 9.3 74 2.3 SSW 11 19 6 10 1027.8 1027.9 0.4
25/11:30am 13.9 12.8 10.7 81 1.7 SW 7 15 4 8 1028.3 1028.4 0.4
25/11:00am 13.5 14.4 13.0 97 0.3 CALM 0 2 0 1 1028.6 1028.7 0.4
25/10:30am 12.7 13.5 12.5 99 0.1 CALM 0 0 0 0 1028.9 1029.0 0.4
25/10:00am 12.7 13.5 12.5 99 0.1 CALM 0 2 0 1 1028.7 1028.8 0.0
25/09:30am 12.2 12.8 12.0 99 0.1 CALM 0 0 0 0 1028.5 1028.6 0.0
25/09:00am 11.4 11.0 11.2 99 0.1 NW 4 9 2 5 1028.2 1028.3 1.2
25/08:30am 10.7 10.1 10.5 99 0.1 NNW 4 7 2 4 1028.0 1028.1 1.2
25/08:00am 9.2 8.3 9.1 99 0.0 N 4 9 2 5 1027.9 1028.0 1.0
25/07:30am 7.5 6.5 7.4 99 0.0 N 2 6 1 3 1027.7 1027.8 1.0
25/07:00am 8.1 7.6 8.0 99 0.0 CALM 0 0 0 0 1027.3 1027.4 1.0
25/06:30am 8.6 8.3 8.5 99 0.0 CALM 0 0 0 0 1027.0 1027.1 1.0
25/06:00am 8.7 8.4 8.6 99 0.0 CALM 0 0 0 0 1026.7 1026.7 1.0
25/05:30am 8.8 8.5 8.7 99 0.0 CALM 0 0 0 0 1026.7 1026.7 1.0
25/05:00am 9.6 9.5 9.5 99 0.0 CALM 0 0 0 0 1026.5 1026.5 1.0
25/04:30am 9.5 9.4 9.4 99 0.0 CALM 0 0 0 0 1026.5 1026.5 0.8
25/04:00am 10.0 8.7 9.9 99 0.1 W 7 9 4 5 1026.5 1026.5 0.8
25/03:30am 9.3 8.0 9.2 99 0.0 W 6 7 3 4 1026.7 1026.7 0.8
25/03:00am 9.3 9.1 9.2 99 0.0 CALM 0 7 0 4 1026.9 1027.0 0.8
25/02:30am 9.8 9.4 9.7 99 0.1 NNW 2 6 1 3 1026.9 1027.0 0.8
25/02:00am 9.8 9.8 9.7 99 0.0 CALM 0 0 0 0 1027.0 1027.1 0.8
25/01:30am 9.6 9.5 9.5 99 0.0 CALM 0 0 0 0 1027.0 1027.1 0.8
25/01:00am 9.6 9.5 9.5 99 0.0 CALM 0 0 0 0 1026.9 1027.0 0.8
25/12:30am 9.8 9.7 9.5 98 0.1 CALM 0 0 0 0 1027.0 1027.1 0.8
25/12:00am 9.8 9.6 9.2 96 0.3 CALM 0 0 0 0 1027.0 1027.1 0.8
 
Date/Time
WST
Temp
°C
App
Temp
°C
Dew
Point
°C
Rel
Hum
%
Delta-T
°C
Wind Press
QNH
hPa
Press
MSL
hPa
Rain since
9am
mm
Dir  Spd
km/h
Gust
km/h
Spd
kts
Gust
kts
24/11:30pm 10.1 8.3 9.5 96 0.3 S 9 13 5 7 1027.2 1027.3 0.6
24/11:00pm 10.0 8.8 9.4 96 0.3 SW 6 9 3 5 1027.2 1027.3 0.6
24/10:30pm 10.6 8.7 10.4 99 0.1 SW 11 17 6 9 1027.1 1027.2 0.6
24/10:00pm 9.4 9.3 9.3 99 0.0 CALM 0 0 0 0 1027.4 1027.5 0.6

Other Formats:

Comma delimited format used in spreadsheet applications
http://www.bom.gov.au/fwo/IDW60801/IDW60801.95641.axf

JavaScript Object Notation format (JSON) in row-major order
http://www.bom.gov.au/fwo/IDW60801/IDW60801.95641.json